CST,Max TemperatureF,Mean TemperatureF,Min TemperatureF,Max Dew PointF,MeanDew PointF,Min DewpointF,Max Humidity, Mean Humidity, Min Humidity, Max Sea Level PressureIn, Mean Sea Level PressureIn, Min Sea Level PressureIn, Max VisibilityMiles, Mean VisibilityMiles, Min VisibilityMiles, Max Wind SpeedMPH, Mean Wind SpeedMPH, Max Gust SpeedMPH,PrecipitationIn, CloudCover, Events, WindDirDegrees
2011-11-1,73,56,39,42,38,34,82,56,29,30.30,30.22,30.17,10,10,5,9,3,14,0.00,0,,16
2011-11-2,76,59,42,51,46,39,92,64,36,30.25,30.15,30.03,10,10,7,15,5,21,0.00,1,,160
2011-11-3,64,54,44,59,44,37,100,77,54,30.16,30.08,29.97,10,9,3,32,16,38,0.30,6,Rain,292
2011-11-4,57,50,42,48,43,37,89,78,66,30.25,30.19,30.13,10,10,10,17,8,21,0.00,7,,343
2011-11-5,68,56,43,48,46,43,100,74,48,30.22,30.16,30.07,10,6,0,13,7,29,0.00,2,Fog,92
2011-11-6,74,60,46,54,48,40,93,71,49,30.24,30.18,30.12,10,10,10,18,11,25,0.00,3,,140
2011-11-7,79,66,53,59,55,53,93,70,46,30.25,30.17,30.10,10,10,10,17,9,22,0.00,2,,147
2011-11-8,81,68,54,66,61,51,93,72,51,30.11,30.02,29.93,10,9,2,32,12,39,0.48,5,Rain-Thunderstorm,167
2011-11-9,65,54,42,63,46,37,84,68,51,30.29,30.15,29.99,10,10,10,23,12,28,T,3,Rain,315
2011-11-10,59,47,34,37,31,22,85,55,24,30.38,30.31,30.26,10,10,10,20,7,24,0.00,0,,324
2011-11-11,67,50,32,39,33,28,85,56,26,30.27,30.20,30.14,10,10,10,20,9,24,0.00,0,,201
2011-11-12,69,54,38,51,44,35,85,67,49,30.19,30.10,30.02,10,10,10,28,15,33,0.00,0,,185
2011-11-13,77,69,60,59,56,51,78,68,57,30.02,29.96,29.89,10,10,10,30,17,36,0.00,5,,187
2011-11-14,81,72,63,63,60,58,87,69,51,29.96,29.90,29.85,10,10,10,24,15,30,0.00,3,,195
2011-11-15,82,73,63,66,64,61,100,77,54,29.87,29.82,29.75,10,9,6,22,10,26,T,3,Rain,188
2011-11-16,71,59,46,66,56,34,97,79,60,30.24,29.87,29.70,10,9,2,24,14,36,0.52,8,Rain-Thunderstorm,360
2011-11-17,54,43,32,35,30,25,89,62,35,30.45,30.37,30.25,10,10,10,15,8,21,T,1,Rain,10
2011-11-18,58,44,30,33,28,24,92,61,30,30.39,30.28,30.15,10,10,10,16,7,21,0.00,0,,140
2011-11-19,75,59,43,58,50,33,86,70,53,30.16,30.10,30.02,10,10,10,22,13,28,0.00,3,,158
2011-11-20,76,69,62,67,63,58,93,84,74,30.20,30.15,30.10,10,10,7,18,10,22,0.00,6,,177
2011-11-21,80,72,64,66,65,62,93,78,62,30.19,30.10,29.99,10,9,6,20,11,25,0.00,4,,176
2011-11-22,69,62,54,65,61,52,100,89,78,30.13,29.97,29.87,10,8,1,31,12,36,1.53,7,Rain-Thunderstorm,221
2011-11-23,56,51,46,50,47,46,93,85,77,30.35,30.26,30.13,10,10,10,17,8,21,0.00,5,,15
2011-11-24,60,52,43,50,46,43,100,84,67,30.42,30.33,30.26,10,8,1,9,3,15,0.00,4,,52
2011-11-25,68,55,42,55,48,41,100,78,55,30.28,30.19,30.05,10,8,0,16,8,20,0.00,1,Fog,150
2011-11-26,75,66,57,63,58,55,100,82,64,30.07,29.95,29.85,10,8,2,26,12,37,0.78,7,Rain,148
2011-11-27,58,50,41,57,44,36,100,88,76,30.13,30.03,29.91,10,7,2,21,14,25,0.15,8,Rain,335
2011-11-28,43,41,38,36,35,32,85,78,70,30.08,30.00,29.92,10,10,8,18,11,23,0.04,8,Rain,311
2011-11-29,53,43,33,36,33,30,92,68,44,30.20,30.03,29.88,10,10,10,20,8,24,T,4,Rain,310
2011-11-30,51,40,28,33,29,27,100,70,39,30.29,30.22,30.17,10,6,0,8,2,21,0.00,0,Fog,359